Postojna, Slovenia
Current Conditions -  °F | °C
As of 9:55 AM on Tuesday 21 Oct 2014 (Local Time) from LIVT Reporting Station
Broken Clouds Broken Clouds  
Wind Chill: 66°   Ceiling: 2000
Heat Index: 66°   Visibility: 4mi
Dew Point: 63°   Wind: 2mph
Humidity: 88%   Direction: 60°ENE
Pressure: 29.88"   Gusts: NA
Location:  45.78°N, 14.22°E
Report Text: LIVT 210855Z 06002KT 6000 BKN020 19/17 Q1012 RMK OVC QUK 0 QUL 0 VIS MAR 6 KM VIS MIN 6000
Loading
Personal Weather Stations






























Interactive Weather Map
Tropical Storm Tracking
New forecast layout! Learn more

10-Day Weather Forecast

Advertisements
Track Severe Weather on mobile